createdAt,value
2016-03-03T00:00:56.831Z,0
2016-03-03T00:01:56.741Z,0
2016-03-03T00:02:56.743Z,0
2016-03-03T00:03:56.714Z,0
2016-03-03T00:04:56.702Z,0
2016-03-03T00:05:56.735Z,0
2016-03-03T00:06:56.660Z,0
2016-03-03T00:07:56.632Z,0
2016-03-03T00:08:56.587Z,0
2016-03-03T00:09:56.543Z,0
2016-03-03T00:10:56.530Z,0
2016-03-03T00:11:56.517Z,0
2016-03-03T00:12:56.488Z,0
2016-03-03T00:13:56.460Z,0
2016-03-03T00:14:56.432Z,0
2016-03-03T00:15:56.403Z,0
2016-03-03T00:16:56.374Z,0
2016-03-03T00:17:56.362Z,0
2016-03-03T00:18:56.333Z,0
2016-03-03T00:19:56.304Z,0
2016-03-03T00:20:56.276Z,0
2016-03-03T00:21:56.262Z,0
2016-03-03T00:22:56.234Z,0
2016-03-03T00:23:56.206Z,0
2016-03-03T00:24:56.177Z,0
2016-03-03T00:25:56.181Z,0
2016-03-03T00:26:56.386Z,0
2016-03-03T00:27:56.123Z,0
2016-03-03T00:28:56.110Z,0
2016-03-03T00:29:55.925Z,0
2016-03-03T00:30:56.053Z,0
2016-03-03T00:31:56.039Z,0
2016-03-03T00:32:55.996Z,0
2016-03-03T00:33:55.951Z,0
2016-03-03T00:34:55.939Z,0
2016-03-03T00:35:55.925Z,0
2016-03-03T00:36:55.897Z,0
2016-03-03T00:37:55.899Z,0
2016-03-03T00:38:55.840Z,0
2016-03-03T00:39:55.874Z,0
2016-03-03T00:40:55.813Z,0
2016-03-03T00:41:56.051Z,0
2016-03-03T00:42:55.788Z,0
2016-03-03T00:43:55.728Z,0
2016-03-03T00:44:55.685Z,0
2016-03-03T00:45:55.671Z,0
2016-03-03T00:46:55.626Z,0
2016-03-03T00:47:55.458Z,0
2016-03-03T00:48:55.617Z,0
2016-03-03T00:49:55.572Z,0
2016-03-03T00:50:55.544Z,0
2016-03-03T00:51:55.548Z,0
2016-03-03T00:52:55.487Z,0
2016-03-03T00:53:55.505Z,0
2016-03-03T00:54:55.445Z,0
2016-03-03T00:55:55.433Z,0
2016-03-03T00:56:55.420Z,0
2016-03-03T00:57:55.626Z,0
2016-03-03T00:58:55.378Z,0
2016-03-03T00:59:55.319Z,0
2016-03-03T01:00:55.321Z,0
2016-03-03T01:01:55.261Z,0
2016-03-03T01:02:55.373Z,0
2016-03-03T01:03:55.235Z,0
2016-03-03T01:04:55.254Z,0
2016-03-03T01:05:55.225Z,0
2016-03-03T01:06:55.134Z,0
2016-03-03T01:07:55.168Z,0
2016-03-03T01:08:55.076Z,0
2016-03-03T01:09:55.111Z,0
2016-03-03T01:10:55.035Z,0
2016-03-03T01:11:55.007Z,0
2016-03-03T01:12:54.994Z,0
2016-03-03T01:13:54.982Z,0
2016-03-03T01:14:54.937Z,0
2016-03-03T01:15:54.924Z,0
2016-03-03T01:16:54.911Z,0
2016-03-03T01:17:54.148Z,0
2016-03-03T01:18:54.854Z,0
2016-03-03T01:19:54.841Z,0
2016-03-03T01:20:54.781Z,0
2016-03-03T01:21:54.768Z,0
2016-03-03T01:22:54.756Z,0
2016-03-03T01:23:54.758Z,0
2016-03-03T01:24:54.682Z,0
2016-03-03T01:25:54.684Z,0
2016-03-03T01:26:54.656Z,0
2016-03-03T01:27:54.628Z,0
2016-03-03T01:28:54.600Z,0
2016-03-03T01:29:54.446Z,0
2016-03-03T01:30:54.542Z,0
2016-03-03T01:31:54.530Z,0
2016-03-03T01:32:54.500Z,0
2016-03-03T01:33:54.503Z,0
2016-03-03T01:34:54.458Z,0
2016-03-03T01:35:54.430Z,0
2016-03-03T01:36:54.433Z,0
2016-03-03T01:37:54.389Z,0
2016-03-03T01:38:54.344Z,0
2016-03-03T01:39:54.316Z,0
2016-03-03T01:40:54.319Z,0
2016-03-03T01:41:54.274Z,0
2016-03-03T01:42:54.262Z,0
2016-03-03T01:43:54.515Z,0
2016-03-03T01:44:54.221Z,0
2016-03-03T01:45:54.192Z,0
2016-03-03T01:46:54.149Z,0
2016-03-03T01:47:54.135Z,0
2016-03-03T01:48:54.201Z,0
2016-03-03T01:49:54.093Z,0
2016-03-03T01:50:54.049Z,0
2016-03-03T01:51:54.021Z,0
2016-03-03T01:52:54.008Z,0
2016-03-03T01:53:54.023Z,0
2016-03-03T01:54:53.948Z,0
2016-03-03T01:55:53.951Z,0
2016-03-03T01:56:53.891Z,0
2016-03-03T01:57:53.908Z,0
2016-03-03T01:58:53.896Z,0
2016-03-03T01:59:54.117Z,0
2016-03-03T02:00:53.823Z,0
2016-03-03T02:01:53.795Z,0
2016-03-03T02:02:53.766Z,0
2016-03-03T02:03:53.752Z,0
2016-03-03T02:04:53.708Z,0
2016-03-03T02:05:53.727Z,0
2016-03-03T02:06:53.683Z,0
2016-03-03T02:07:53.624Z,0
2016-03-03T02:08:53.611Z,0
2016-03-03T02:09:53.597Z,0
2016-03-03T02:10:53.569Z,0
2016-03-03T02:11:53.557Z,0
2016-03-03T02:12:53.513Z,0
2016-03-03T02:13:53.468Z,0
2016-03-03T02:14:53.454Z,0
2016-03-03T02:15:53.442Z,0
2016-03-03T02:16:53.413Z,0
2016-03-03T02:17:53.385Z,0
2016-03-03T02:18:53.357Z,0
2016-03-03T02:19:53.328Z,0
2016-03-03T02:20:53.331Z,0
2016-03-03T02:21:53.286Z,0
2016-03-03T02:22:53.257Z,0
2016-03-03T02:23:53.213Z,0
2016-03-03T02:24:53.201Z,0
2016-03-03T02:25:53.187Z,0
2016-03-03T02:26:53.159Z,0
2016-03-03T02:27:53.130Z,0
2016-03-03T02:28:53.102Z,0
2016-03-03T02:29:52.338Z,0
2016-03-03T02:30:53.060Z,0
2016-03-03T02:31:53.251Z,0
2016-03-03T02:32:53.019Z,0
2016-03-03T02:33:52.975Z,0
2016-03-03T02:34:53.086Z,0
2016-03-03T02:35:52.933Z,0
2016-03-03T02:36:52.904Z,0
2016-03-03T02:37:52.891Z,0
2016-03-03T02:38:52.863Z,0
2016-03-03T02:39:52.866Z,0
2016-03-03T02:40:52.852Z,0
2016-03-03T02:41:52.793Z,0
2016-03-03T02:42:52.764Z,0
2016-03-03T02:43:52.735Z,0
2016-03-03T02:44:52.707Z,0
2016-03-03T02:45:52.976Z,0
2016-03-03T02:46:52.916Z,0
2016-03-03T02:47:52.637Z,0
2016-03-03T02:48:52.624Z,0
2016-03-03T02:49:52.589Z,0
2016-03-03T02:50:52.654Z,0
2016-03-03T02:51:52.485Z,0
2016-03-03T02:52:52.488Z,0
2016-03-03T02:53:52.428Z,0
2016-03-03T02:54:52.389Z,0
2016-03-03T02:55:52.433Z,0
2016-03-03T02:56:52.305Z,0
2016-03-03T02:57:52.271Z,0
2016-03-03T02:58:52.285Z,0
2016-03-03T02:59:52.252Z,0
2016-03-03T03:00:52.207Z,0
2016-03-03T03:01:52.160Z,0
2016-03-03T03:02:52.145Z,0
2016-03-03T03:03:52.177Z,0
2016-03-03T03:04:52.100Z,0
2016-03-03T03:05:52.102Z,0
2016-03-03T03:06:52.042Z,0
2016-03-03T03:07:52.012Z,0
2016-03-03T03:08:51.983Z,0
2016-03-03T03:09:51.955Z,0
2016-03-03T03:10:51.941Z,0
2016-03-03T03:11:51.896Z,0
2016-03-03T03:12:51.899Z,0
2016-03-03T03:13:51.870Z,0
2016-03-03T03:14:51.842Z,0
2016-03-03T03:15:51.860Z,0
2016-03-03T03:16:51.783Z,0
2016-03-03T03:17:51.786Z,0
2016-03-03T03:18:51.758Z,0
2016-03-03T03:19:51.713Z,0
2016-03-03T03:20:51.685Z,0
2016-03-03T03:21:51.657Z,0
2016-03-03T03:22:51.644Z,0
2016-03-03T03:23:51.616Z,0
2016-03-03T03:24:51.603Z,0
2016-03-03T03:25:51.574Z,0
2016-03-03T03:26:51.546Z,0
2016-03-03T03:27:51.549Z,0
2016-03-03T03:28:51.505Z,0
2016-03-03T03:29:51.460Z,0
2016-03-03T03:30:51.431Z,0
2016-03-03T03:31:51.418Z,0
2016-03-03T03:32:51.406Z,0
2016-03-03T03:33:51.377Z,0
2016-03-03T03:34:51.364Z,0
2016-03-03T03:35:51.305Z,0
2016-03-03T03:36:51.510Z,0
2016-03-03T03:37:51.310Z,0
2016-03-03T03:38:51.125Z,0
2016-03-03T03:39:51.221Z,0
2016-03-03T03:40:51.177Z,0
2016-03-03T03:41:51.242Z,0
2016-03-03T03:42:51.167Z,0
2016-03-03T03:43:51.170Z,0
2016-03-03T03:44:51.110Z,0
2016-03-03T03:45:51.066Z,0
2016-03-03T03:46:51.037Z,0
2016-03-03T03:47:51.025Z,0
2016-03-03T03:48:50.981Z,0
2016-03-03T03:49:50.967Z,0
2016-03-03T03:50:50.939Z,0
2016-03-03T03:51:50.972Z,0
2016-03-03T03:52:50.756Z,0
2016-03-03T03:53:50.869Z,0
2016-03-03T03:54:50.699Z,0
2016-03-03T03:55:50.843Z,0
2016-03-03T03:56:50.782Z,0
2016-03-03T03:57:50.785Z,0
2016-03-03T03:58:50.757Z,0
2016-03-03T03:59:50.760Z,0
2016-03-03T04:00:50.700Z,0
2016-03-03T04:01:50.687Z,0
2016-03-03T04:02:50.658Z,0
2016-03-03T04:03:49.927Z,0
2016-03-03T04:04:50.585Z,0
2016-03-03T04:05:50.573Z,0
2016-03-03T04:06:50.559Z,0
2016-03-03T04:07:50.546Z,0
2016-03-03T04:08:50.487Z,0
2016-03-03T04:09:50.520Z,0
2016-03-03T04:10:50.462Z,0
2016-03-03T04:11:50.432Z,0
2016-03-03T04:12:50.404Z,0
2016-03-03T04:13:50.376Z,0
2016-03-03T04:14:50.348Z,0
2016-03-03T04:15:50.334Z,0
2016-03-03T04:16:50.290Z,0
2016-03-03T04:17:50.292Z,0
2016-03-03T04:18:50.234Z,0
2016-03-03T04:19:50.268Z,0
2016-03-03T04:20:50.192Z,0
2016-03-03T04:21:50.200Z,0
2016-03-03T04:22:50.156Z,0
2016-03-03T04:23:50.127Z,0
2016-03-03T04:24:50.098Z,0
2016-03-03T04:25:50.069Z,0
2016-03-03T04:26:50.056Z,0
2016-03-03T04:27:50.028Z,0
2016-03-03T04:28:49.983Z,0
2016-03-03T04:29:49.972Z,0
2016-03-03T04:30:49.958Z,0
2016-03-03T04:31:49.945Z,0
2016-03-03T04:32:49.886Z,0
2016-03-03T04:33:49.888Z,0
2016-03-03T04:34:49.844Z,0
2016-03-03T04:35:49.846Z,0
2016-03-03T04:36:49.787Z,0
2016-03-03T04:37:49.805Z,0
2016-03-03T04:38:49.948Z,0
2016-03-03T04:39:49.732Z,0
2016-03-03T04:40:49.688Z,0
2016-03-03T04:41:49.691Z,0
2016-03-03T04:42:49.647Z,0
2016-03-03T04:43:49.665Z,0
2016-03-03T04:44:49.621Z,0
2016-03-03T04:45:49.576Z,0
2016-03-03T04:46:49.532Z,0
2016-03-03T04:47:49.520Z,0
2016-03-03T04:48:49.491Z,0
2016-03-03T04:49:49.462Z,0
2016-03-03T04:50:49.496Z,0
2016-03-03T04:51:49.436Z,0
2016-03-03T04:52:49.408Z,0
2016-03-03T04:53:49.364Z,0
2016-03-03T04:54:49.366Z,0
2016-03-03T04:55:49.353Z,0
2016-03-03T04:56:49.294Z,0
2016-03-03T04:57:49.281Z,0
2016-03-03T04:58:49.284Z,0
2016-03-03T04:59:49.208Z,0
2016-03-03T05:00:49.195Z,0
2016-03-03T05:01:49.167Z,0
2016-03-03T05:02:49.153Z,0
2016-03-03T05:03:49.125Z,0
2016-03-03T05:04:49.112Z,0
2016-03-03T05:05:49.068Z,0
2016-03-03T05:06:49.055Z,0
2016-03-03T05:07:49.027Z,0
2016-03-03T05:08:49.029Z,0
2016-03-03T05:09:48.969Z,0
2016-03-03T05:10:49.081Z,0
2016-03-03T05:11:48.927Z,0
2016-03-03T05:12:48.884Z,0
2016-03-03T05:13:48.917Z,0
2016-03-03T05:14:48.843Z,0
2016-03-03T05:15:48.829Z,0
2016-03-03T05:16:48.800Z,0
2016-03-03T05:17:48.818Z,0
2016-03-03T05:18:48.743Z,0
2016-03-03T05:19:48.712Z,0
2016-03-03T05:20:48.699Z,0
2016-03-03T05:21:48.656Z,0
2016-03-03T05:22:48.658Z,0
2016-03-03T05:23:48.629Z,0
2016-03-03T05:24:48.820Z,0
2016-03-03T05:25:48.698Z,0
2016-03-03T05:26:48.544Z,0
2016-03-03T05:27:48.515Z,0
2016-03-03T05:28:48.487Z,0
2016-03-03T05:29:48.489Z,0
2016-03-03T05:30:48.461Z,0
2016-03-03T05:31:48.400Z,0
2016-03-03T05:32:48.388Z,0
2016-03-03T05:33:48.391Z,0
2016-03-03T05:34:48.330Z,0
2016-03-03T05:35:48.333Z,0
2016-03-03T05:36:48.274Z,0
2016-03-03T05:37:48.291Z,0
2016-03-03T05:38:48.247Z,0
2016-03-03T05:39:48.266Z,0
2016-03-03T05:40:48.410Z,0
2016-03-03T05:41:48.163Z,0
2016-03-03T05:42:48.133Z,0
2016-03-03T05:43:48.136Z,0
2016-03-03T05:44:48.092Z,0
2016-03-03T05:45:48.141Z,0
2016-03-03T05:46:48.035Z,0
2016-03-03T05:47:48.021Z,0
2016-03-03T05:48:47.978Z,0
2016-03-03T05:49:47.824Z,0
2016-03-03T05:50:47.952Z,0
2016-03-03T05:51:47.908Z,0
2016-03-03T05:52:47.879Z,0
2016-03-03T05:53:47.851Z,0
2016-03-03T05:54:47.854Z,0
2016-03-03T05:55:47.840Z,0
2016-03-03T05:56:47.781Z,0
2016-03-03T05:57:47.767Z,0
2016-03-03T05:58:47.739Z,0
2016-03-03T05:59:47.711Z,0
2016-03-03T06:00:47.698Z,0
2016-03-03T06:01:47.669Z,0
2016-03-03T06:02:47.625Z,0
2016-03-03T06:03:47.611Z,0
2016-03-03T06:04:47.614Z,0
2016-03-03T06:05:47.570Z,0
2016-03-03T06:06:47.588Z,0
2016-03-03T06:07:47.514Z,0
2016-03-03T06:08:47.500Z,0
2016-03-03T06:09:47.471Z,0
2016-03-03T06:10:47.443Z,0
2016-03-03T06:11:47.415Z,0
2016-03-03T06:12:47.385Z,0
2016-03-03T06:13:47.560Z,0
2016-03-03T06:14:47.344Z,0
2016-03-03T06:15:47.301Z,0
2016-03-03T06:16:47.303Z,0
2016-03-03T06:17:47.260Z,0
2016-03-03T06:18:47.262Z,0
2016-03-03T06:19:47.218Z,0
2016-03-03T06:20:47.190Z,0
2016-03-03T06:21:47.208Z,0
2016-03-03T06:22:47.132Z,0
2016-03-03T06:23:47.135Z,0
2016-03-03T06:24:47.106Z,0
2016-03-03T06:25:47.078Z,0
2016-03-03T06:26:47.237Z,0
2016-03-03T06:27:47.020Z,0
2016-03-03T06:28:47.023Z,0
2016-03-03T06:29:46.964Z,0
2016-03-03T06:30:46.966Z,0
2016-03-03T06:31:46.906Z,0
2016-03-03T06:32:46.909Z,0
2016-03-03T06:33:46.864Z,0
2016-03-03T06:34:46.836Z,0
2016-03-03T06:35:46.823Z,0
2016-03-03T06:36:46.794Z,0
2016-03-03T06:37:47.064Z,0
2016-03-03T06:38:46.738Z,0
2016-03-03T06:39:46.741Z,0
2016-03-03T06:40:46.697Z,0
2016-03-03T06:41:46.668Z,0
2016-03-03T06:42:46.780Z,0
2016-03-03T06:43:46.611Z,0
2016-03-03T06:44:46.597Z,0
2016-03-03T06:45:46.570Z,0
2016-03-03T06:46:46.556Z,0
2016-03-03T06:47:46.544Z,5
2016-03-03T06:48:46.484Z,5
2016-03-03T06:49:46.475Z,5
2016-03-03T06:50:46.445Z,5
2016-03-03T06:51:46.418Z,5
2016-03-03T06:52:46.389Z,5
2016-03-03T06:53:46.376Z,5
2016-03-03T06:54:46.395Z,5
2016-03-03T06:55:46.350Z,5
2016-03-03T06:56:46.337Z,5
2016-03-03T06:57:46.339Z,5
2016-03-03T06:58:46.233Z,5
2016-03-03T06:59:46.220Z,5
2016-03-03T07:00:46.238Z,5
2016-03-03T07:01:46.179Z,5
2016-03-03T07:02:46.150Z,5
2016-03-03T07:03:46.106Z,5
2016-03-03T07:04:46.125Z,5
2016-03-03T07:05:46.064Z,5
2016-03-03T07:06:46.083Z,5
2016-03-03T07:07:46.023Z,5
2016-03-03T07:08:45.870Z,5
2016-03-03T07:09:45.966Z,5
2016-03-03T07:10:45.952Z,5
2016-03-03T07:11:45.956Z,10
2016-03-03T07:12:45.896Z,10
2016-03-03T07:13:45.899Z,5
2016-03-03T07:14:45.855Z,5
2016-03-03T07:15:45.841Z,5
2016-03-03T07:16:45.797Z,5
2016-03-03T07:17:45.784Z,5
2016-03-03T07:18:45.740Z,5
2016-03-03T07:19:45.743Z,5
2016-03-03T07:20:45.698Z,5
2016-03-03T07:21:45.686Z,5
2016-03-03T07:22:45.642Z,5
2016-03-03T07:23:45.831Z,5
2016-03-03T07:24:45.585Z,5
2016-03-03T07:25:45.587Z,5
2016-03-03T07:26:45.542Z,5
2016-03-03T07:27:45.514Z,5
2016-03-03T07:28:45.517Z,5
2016-03-03T07:29:45.458Z,5
2016-03-03T07:30:45.444Z,5
2016-03-03T07:31:45.431Z,5
2016-03-03T07:32:45.403Z,5
2016-03-03T07:33:45.390Z,5
2016-03-03T07:34:45.612Z,5
2016-03-03T07:35:45.349Z,5
2016-03-03T07:36:45.335Z,10
2016-03-03T07:37:45.291Z,10
2016-03-03T07:38:45.247Z,10
2016-03-03T07:39:45.422Z,10
2016-03-03T07:40:45.237Z,10
2016-03-03T07:41:45.193Z,10
2016-03-03T07:42:45.149Z,10
2016-03-03T07:43:45.135Z,10
2016-03-03T07:44:45.124Z,10
2016-03-03T07:45:45.079Z,10
2016-03-03T07:46:45.065Z,10
2016-03-03T07:47:45.021Z,10
2016-03-03T07:48:45.024Z,10
2016-03-03T07:49:44.839Z,10
2016-03-03T07:50:44.967Z,10
2016-03-03T07:51:44.907Z,10
2016-03-03T07:52:44.925Z,10
2016-03-03T07:53:44.881Z,10
2016-03-03T07:54:44.868Z,10
2016-03-03T07:55:44.824Z,10
2016-03-03T07:56:44.795Z,10
2016-03-03T07:57:44.767Z,10
2016-03-03T07:58:44.770Z,10
2016-03-03T07:59:44.725Z,10
2016-03-03T08:00:44.728Z,10
2016-03-03T08:01:44.668Z,10
2016-03-03T08:02:44.671Z,10
2016-03-03T08:03:44.503Z,10
2016-03-03T08:04:44.598Z,10
2016-03-03T08:05:44.601Z,10
2016-03-03T08:06:43.853Z,10
2016-03-03T08:07:44.528Z,10
2016-03-03T08:08:44.516Z,10
2016-03-03T08:09:44.549Z,10
2016-03-03T08:10:44.474Z,10
2016-03-03T08:11:44.430Z,10
2016-03-03T08:12:44.385Z,10
2016-03-03T08:13:44.388Z,10
2016-03-03T08:14:44.344Z,10
2016-03-03T08:15:44.346Z,10
2016-03-03T08:16:44.302Z,10
2016-03-03T08:17:44.305Z,10
2016-03-03T08:18:44.276Z,10
2016-03-03T08:19:44.232Z,10
2016-03-03T08:20:44.485Z,10
2016-03-03T08:21:44.176Z,10
2016-03-03T08:22:44.193Z,10
2016-03-03T08:23:44.134Z,10
2016-03-03T08:24:44.121Z,10
2016-03-03T08:25:44.186Z,10
2016-03-03T08:26:44.079Z,10
2016-03-03T08:27:44.035Z,10
2016-03-03T08:28:44.037Z,10
2016-03-03T08:29:44.009Z,10
2016-03-03T08:30:43.981Z,10
2016-03-03T08:31:43.920Z,10
2016-03-03T08:32:43.924Z,10
2016-03-03T08:33:43.895Z,10
2016-03-03T08:34:43.914Z,10
2016-03-03T08:35:43.838Z,10
2016-03-03T08:36:44.075Z,10
2016-03-03T08:37:43.797Z,10
2016-03-03T08:38:43.752Z,10
2016-03-03T08:39:43.755Z,10
2016-03-03T08:40:43.695Z,10
2016-03-03T08:41:43.682Z,10
2016-03-03T08:42:43.654Z,10
2016-03-03T08:43:43.672Z,10
2016-03-03T08:44:43.612Z,10
2016-03-03T08:45:43.599Z,10
2016-03-03T08:46:43.586Z,10
2016-03-03T08:47:43.557Z,15
2016-03-03T08:48:43.513Z,15
2016-03-03T08:49:43.469Z,15
2016-03-03T08:50:43.487Z,15
2016-03-03T08:51:43.459Z,20
2016-03-03T08:52:43.446Z,20
2016-03-03T08:53:43.387Z,20
2016-03-03T08:54:43.373Z,20
2016-03-03T08:55:43.345Z,25
2016-03-03T08:56:43.317Z,25
2016-03-03T08:57:43.287Z,25
2016-03-03T08:58:43.290Z,25
2016-03-03T08:59:43.231Z,25
2016-03-03T09:00:43.233Z,25
2016-03-03T09:01:43.190Z,25
2016-03-03T09:02:43.036Z,30
2016-03-03T09:03:43.163Z,30
2016-03-03T09:04:43.119Z,25
2016-03-03T09:05:43.122Z,30
2016-03-03T09:06:43.077Z,30
2016-03-03T09:07:43.064Z,25
2016-03-03T09:08:43.020Z,30
2016-03-03T09:09:42.992Z,30
2016-03-03T09:10:42.980Z,30
2016-03-03T09:11:42.997Z,30
2016-03-03T09:12:42.921Z,30
2016-03-03T09:13:42.941Z,30
2016-03-03T09:14:42.865Z,30
2016-03-03T09:15:42.868Z,30
2016-03-03T09:16:42.666Z,30
2016-03-03T09:17:43.060Z,30
2016-03-03T09:18:42.766Z,30
2016-03-03T09:19:42.769Z,35
2016-03-03T09:20:42.724Z,35
2016-03-03T09:21:42.743Z,35
2016-03-03T09:22:42.793Z,35
2016-03-03T09:23:42.685Z,35
2016-03-03T09:24:42.704Z,35
2016-03-03T09:25:42.753Z,35
2016-03-03T09:26:42.615Z,35
2016-03-03T09:27:42.587Z,35
2016-03-03T09:28:42.528Z,35
2016-03-03T09:29:42.498Z,35
2016-03-03T09:30:42.345Z,35
2016-03-03T09:31:42.332Z,35
2016-03-03T09:32:42.444Z,35
2016-03-03T09:33:42.603Z,35
2016-03-03T09:34:42.402Z,35
2016-03-03T09:35:42.390Z,35
2016-03-03T09:36:42.345Z,35
2016-03-03T09:37:42.317Z,35
2016-03-03T09:38:42.305Z,30
2016-03-03T09:39:42.260Z,30
2016-03-03T09:40:42.278Z,30
2016-03-03T09:41:42.234Z,25
2016-03-03T09:42:42.205Z,25
2016-03-03T09:43:42.177Z,25
2016-03-03T09:44:42.196Z,25
2016-03-03T09:45:41.963Z,25
2016-03-03T09:46:42.123Z,25
2016-03-03T09:47:42.063Z,25
2016-03-03T09:48:42.066Z,25
2016-03-03T09:49:42.021Z,25
2016-03-03T09:50:42.008Z,30
2016-03-03T09:51:41.995Z,30
2016-03-03T09:52:41.951Z,30
2016-03-03T09:53:41.923Z,30
2016-03-03T09:54:41.910Z,30
2016-03-03T09:55:41.881Z,35
2016-03-03T09:56:41.853Z,35
2016-03-03T09:57:41.887Z,35
2016-03-03T09:58:41.843Z,35
2016-03-03T09:59:41.798Z,40
2016-03-03T10:00:41.754Z,40
2016-03-03T10:01:41.757Z,40
2016-03-03T10:02:41.712Z,40
2016-03-03T10:03:41.731Z,40
2016-03-03T10:04:41.656Z,40
2016-03-03T10:05:41.658Z,40
2016-03-03T10:06:41.614Z,40
2016-03-03T10:07:41.616Z,40
2016-03-03T10:08:41.556Z,40
2016-03-03T10:09:41.559Z,40
2016-03-03T10:10:41.561Z,40
2016-03-03T10:11:41.519Z,45
2016-03-03T10:12:41.458Z,45
2016-03-03T10:13:41.445Z,45
2016-03-03T10:14:41.619Z,45
2016-03-03T10:15:41.450Z,50
2016-03-03T10:16:41.374Z,50
2016-03-03T10:17:41.362Z,50
2016-03-03T10:18:41.318Z,50
2016-03-03T10:19:41.304Z,50
2016-03-03T10:20:41.292Z,50
2016-03-03T10:21:41.263Z,50
2016-03-03T10:22:41.219Z,45
2016-03-03T10:23:41.206Z,45
2016-03-03T10:24:41.193Z,45
2016-03-03T10:25:41.415Z,45
2016-03-03T10:26:41.120Z,45
2016-03-03T10:27:41.154Z,45
2016-03-03T10:28:41.095Z,40
2016-03-03T10:29:41.066Z,40
2016-03-03T10:30:41.178Z,40
2016-03-03T10:31:41.009Z,40
2016-03-03T10:32:41.027Z,40
2016-03-03T10:33:40.967Z,40
2016-03-03T10:34:40.955Z,40
2016-03-03T10:35:40.925Z,40
2016-03-03T10:36:40.881Z,40
2016-03-03T10:37:40.916Z,40
2016-03-03T10:38:40.872Z,40
2016-03-03T10:39:40.843Z,35
2016-03-03T10:40:40.783Z,35
2016-03-03T10:41:40.786Z,35
2016-03-03T10:42:40.788Z,35
2016-03-03T10:43:40.729Z,35
2016-03-03T10:44:40.716Z,35
2016-03-03T10:45:40.515Z,35
2016-03-03T10:46:40.674Z,35
2016-03-03T10:47:40.630Z,40
2016-03-03T10:48:40.648Z,45
2016-03-03T10:49:40.588Z,40
2016-03-03T10:50:40.623Z,35
2016-03-03T10:51:40.657Z,35
2016-03-03T10:52:40.534Z,40
2016-03-03T10:53:40.490Z,40
2016-03-03T10:54:40.321Z,45
2016-03-03T10:55:40.464Z,50
2016-03-03T10:56:40.420Z,50
2016-03-03T10:57:40.392Z,50
2016-03-03T10:58:40.253Z,50
2016-03-03T10:59:40.334Z,55
2016-03-03T11:00:40.181Z,55
2016-03-03T11:01:40.292Z,55
2016-03-03T11:02:40.326Z,50
2016-03-03T11:03:40.251Z,50
2016-03-03T11:04:40.238Z,55
2016-03-03T11:05:40.194Z,55
2016-03-03T11:06:40.166Z,60
2016-03-03T11:07:40.169Z,55
2016-03-03T11:08:40.155Z,40
2016-03-03T11:09:40.158Z,35
2016-03-03T11:10:40.098Z,30
2016-03-03T11:11:40.257Z,25
2016-03-03T11:12:40.808Z,25
2016-03-03T11:13:40.677Z,25
2016-03-03T11:14:39.679Z,25
2016-03-03T11:15:45.572Z,25
2016-03-03T11:16:39.963Z,25
2016-03-03T11:17:39.903Z,25
2016-03-03T11:18:39.906Z,25
2016-03-03T11:19:39.893Z,25
2016-03-03T11:20:39.865Z,25
2016-03-03T11:21:39.882Z,25
2016-03-03T11:22:40.043Z,30
2016-03-03T11:23:39.779Z,30
2016-03-03T11:24:39.797Z,30
2016-03-03T11:25:39.754Z,30
2016-03-03T11:26:39.568Z,30
2016-03-03T11:27:39.851Z,30
2016-03-03T11:28:39.699Z,30
2016-03-03T11:29:39.654Z,35
2016-03-03T11:30:39.626Z,40
2016-03-03T11:31:39.597Z,45
2016-03-03T11:32:39.569Z,50
2016-03-03T11:33:39.556Z,55
2016-03-03T11:34:39.527Z,60
2016-03-03T11:35:39.514Z,60
2016-03-03T11:36:39.517Z,60
2016-03-03T11:37:39.442Z,65
2016-03-03T11:38:39.428Z,65
2016-03-03T11:39:39.400Z,70
2016-03-03T11:40:39.387Z,70
2016-03-03T11:41:39.405Z,70
2016-03-03T11:42:39.392Z,70
2016-03-03T11:43:39.317Z,70
2016-03-03T11:44:39.319Z,75
2016-03-03T11:45:39.275Z,75
2016-03-03T11:46:39.278Z,75
2016-03-03T11:47:39.265Z,75
2016-03-03T11:48:39.237Z,70
2016-03-03T11:49:39.193Z,75
2016-03-03T11:50:39.179Z,70
2016-03-03T11:51:38.979Z,70
2016-03-03T11:52:39.123Z,65
2016-03-03T11:53:39.063Z,65
2016-03-03T11:54:39.049Z,70
2016-03-03T11:55:39.050Z,70
2016-03-03T11:56:39.029Z,70
2016-03-03T11:57:38.975Z,65
2016-03-03T11:58:38.970Z,65
2016-03-03T11:59:38.904Z,65
2016-03-03T12:00:38.900Z,70
2016-03-03T12:01:38.868Z,65
2016-03-03T12:02:38.867Z,75
2016-03-03T12:03:39.118Z,75
2016-03-03T12:04:38.773Z,65
2016-03-03T12:05:38.758Z,60
2016-03-03T12:06:38.744Z,75
2016-03-03T12:07:38.698Z,80
2016-03-03T12:08:38.685Z,80
2016-03-03T12:09:38.764Z,85
2016-03-03T12:10:38.640Z,85
2016-03-03T12:11:38.908Z,85
2016-03-03T12:12:38.598Z,80
2016-03-03T12:13:38.757Z,65
2016-03-03T12:14:38.572Z,75
2016-03-03T12:15:38.512Z,75
2016-03-03T12:16:38.514Z,65
2016-03-03T12:17:38.516Z,55
2016-03-03T12:18:38.519Z,55
2016-03-03T12:19:38.442Z,50
2016-03-03T12:20:38.414Z,50
2016-03-03T12:21:38.370Z,50
2016-03-03T12:22:38.387Z,50
2016-03-03T12:23:38.328Z,45
2016-03-03T12:24:38.611Z,45
2016-03-03T12:25:38.303Z,45
2016-03-03T12:26:38.289Z,45
2016-03-03T12:27:38.276Z,40
2016-03-03T12:28:38.232Z,35
2016-03-03T12:29:38.219Z,35
2016-03-03T12:30:38.191Z,55
2016-03-03T12:31:38.178Z,30
2016-03-03T12:32:38.133Z,30
2016-03-03T12:33:38.121Z,35
2016-03-03T12:34:38.155Z,50
2016-03-03T12:35:38.080Z,70
2016-03-03T12:36:38.113Z,60
2016-03-03T12:37:38.038Z,50
2016-03-03T12:38:38.024Z,55
2016-03-03T12:39:37.980Z,60
2016-03-03T12:40:37.999Z,90
2016-03-03T12:41:37.938Z,85
2016-03-03T12:42:37.942Z,85
2016-03-03T12:43:37.882Z,65
2016-03-03T12:44:37.868Z,60
2016-03-03T12:45:37.841Z,80
2016-03-03T12:46:37.827Z,100
2016-03-03T12:47:37.798Z,70
2016-03-03T12:48:37.801Z,75
2016-03-03T12:49:37.773Z,100
2016-03-03T12:50:37.745Z,100
2016-03-03T12:51:37.715Z,110
2016-03-03T12:52:37.687Z,120
2016-03-03T12:53:37.690Z,115
2016-03-03T12:54:37.645Z,80
2016-03-03T12:55:37.648Z,90
2016-03-03T12:56:37.604Z,80
2016-03-03T12:57:37.592Z,50
2016-03-03T12:58:37.578Z,45
2016-03-03T12:59:37.612Z,35
2016-03-03T13:00:37.506Z,30
2016-03-03T13:01:37.508Z,35
2016-03-03T13:02:37.480Z,45
2016-03-03T13:03:37.466Z,50
2016-03-03T13:04:37.470Z,50
2016-03-03T13:05:37.425Z,55
2016-03-03T13:06:37.381Z,60
2016-03-03T13:07:37.415Z,65
2016-03-03T13:08:37.340Z,65
2016-03-03T13:09:37.358Z,95
2016-03-03T13:10:37.517Z,90
2016-03-03T13:11:37.269Z,80
2016-03-03T13:12:37.272Z,75
2016-03-03T13:13:37.212Z,75
2016-03-03T13:14:37.231Z,70
2016-03-03T13:15:37.265Z,60
2016-03-03T13:16:37.157Z,45
2016-03-03T13:17:37.145Z,65
2016-03-03T13:18:37.148Z,55
2016-03-03T13:19:37.120Z,60
2016-03-03T13:20:37.106Z,55
2016-03-03T13:21:37.062Z,60
2016-03-03T13:22:37.034Z,50
2016-03-03T13:23:37.005Z,55
2016-03-03T13:24:36.304Z,50
2016-03-03T13:25:36.995Z,50
2016-03-03T13:26:36.934Z,40
2016-03-03T13:27:36.969Z,45
2016-03-03T13:28:36.972Z,60
2016-03-03T13:29:36.881Z,80
2016-03-03T13:30:36.868Z,85
2016-03-03T13:31:36.840Z,85
2016-03-03T13:32:36.842Z,90
2016-03-03T13:33:36.814Z,90
2016-03-03T13:34:36.786Z,90
2016-03-03T13:35:36.772Z,90
2016-03-03T13:36:36.712Z,95
2016-03-03T13:37:36.730Z,100
2016-03-03T13:38:36.717Z,70
2016-03-03T13:39:36.674Z,70
2016-03-03T13:40:36.722Z,75
2016-03-03T13:41:36.632Z,50
2016-03-03T13:42:36.463Z,50
2016-03-03T13:43:36.548Z,45
2016-03-03T13:44:36.831Z,45
2016-03-03T13:45:36.536Z,45
2016-03-03T13:46:36.524Z,50
2016-03-03T13:47:36.495Z,45
2016-03-03T13:48:36.513Z,40
2016-03-03T13:49:36.439Z,35
2016-03-03T13:50:36.425Z,35
2016-03-03T13:51:36.396Z,30
2016-03-03T13:52:36.399Z,25
2016-03-03T13:53:36.355Z,20
2016-03-03T13:54:36.405Z,20
2016-03-03T13:55:36.346Z,20
2016-03-03T13:56:36.349Z,15
2016-03-03T13:57:36.304Z,20
2016-03-03T13:58:36.103Z,20
2016-03-03T13:59:36.246Z,20
2016-03-03T14:00:36.202Z,20
2016-03-03T14:01:36.221Z,20
2016-03-03T14:02:36.457Z,20
2016-03-03T14:03:36.163Z,20
2016-03-03T14:04:36.135Z,25
2016-03-03T14:05:36.106Z,25
2016-03-03T14:06:36.094Z,20
2016-03-03T14:07:36.221Z,15
2016-03-03T14:08:36.068Z,15
2016-03-03T14:09:36.023Z,20
2016-03-03T14:10:35.995Z,20
2016-03-03T14:11:35.967Z,20
2016-03-03T14:12:35.954Z,25
2016-03-03T14:13:35.925Z,25
2016-03-03T14:14:35.897Z,25
2016-03-03T14:15:35.867Z,20
2016-03-03T14:16:35.870Z,20
2016-03-03T14:17:35.905Z,20
2016-03-03T14:18:36.095Z,25
2016-03-03T14:19:35.816Z,25
2016-03-03T14:20:35.788Z,25
2016-03-03T14:21:35.759Z,30
2016-03-03T14:22:35.761Z,30
2016-03-03T14:23:35.702Z,35
2016-03-03T14:24:35.704Z,55
2016-03-03T14:25:35.660Z,55
2016-03-03T14:26:35.772Z,55
2016-03-03T14:27:35.650Z,50
2016-03-03T14:28:35.606Z,25
2016-03-03T14:29:35.577Z,50
2016-03-03T14:30:35.549Z,50
2016-03-03T14:31:35.520Z,50